Time;durP1;ratioP1;P1;durP2;ratioP2;P2;SDS_P1;SDS_P2;PMS_P1;PMS_P2;Temp;Humidity;BMP_temperature;BMP_pressure;BME280_temperature;BME280_humidity;BME280_pressure;Samples;Min_cycle;Max_cycle;Signal;HPM_P1;HPM_P2
2023/12/26 00:02:24;;;;;;;0.55;0.55;;;13.60;99.90;;;;;;968941;146;27423;-83
2023/12/26 00:04:49;;;;;;;0.60;0.60;;;13.60;99.90;;;;;;968052;146;27226;-82
2023/12/26 00:07:16;;;;;;;0.72;0.45;;;13.60;99.90;;;;;;968278;147;27247;-81
2023/12/26 00:09:42;;;;;;;0.60;0.60;;;13.60;99.90;;;;;;968113;146;27325;-82
2023/12/26 00:12:09;;;;;;;0.50;0.50;;;13.60;99.90;;;;;;971852;145;27333;-83
2023/12/26 00:14:36;;;;;;;0.88;0.70;;;13.60;99.90;;;;;;974178;146;27317;-81
2023/12/26 00:17:02;;;;;;;0.37;0.37;;;13.60;99.90;;;;;;974656;146;27277;-82
2023/12/26 00:19:29;;;;;;;0.40;0.40;;;13.60;99.90;;;;;;975080;146;27307;-81
2023/12/26 00:21:55;;;;;;;0.40;0.40;;;13.60;99.90;;;;;;931396;151;27319;-82
2023/12/26 00:24:22;;;;;;;0.37;0.37;;;13.60;99.90;;;;;;964576;146;27327;-81
2023/12/26 00:26:49;;;;;;;0.82;0.82;;;13.60;99.90;;;;;;964849;147;27271;-81
2023/12/26 00:29:15;;;;;;;0.47;0.47;;;13.60;99.90;;;;;;965440;146;27293;-82
2023/12/26 00:31:42;;;;;;;0.40;0.40;;;13.60;99.90;;;;;;965311;146;27290;-82
2023/12/26 00:34:08;;;;;;;0.45;0.45;;;13.60;99.90;;;;;;963464;146;27310;-86
2023/12/26 00:36:35;;;;;;;0.33;0.33;;;13.60;99.90;;;;;;967138;146;27300;-86
2023/12/26 00:39:02;;;;;;;0.30;0.30;;;13.60;99.90;;;;;;971365;146;27250;-86
2023/12/26 00:41:28;;;;;;;1.35;0.50;;;13.60;99.90;;;;;;971810;146;27256;-85
2023/12/26 00:43:55;;;;;;;0.50;0.50;;;13.60;99.90;;;;;;966452;146;27326;-84
2023/12/26 00:46:21;;;;;;;0.40;0.40;;;13.60;99.90;;;;;;965657;145;27318;-86
2023/12/26 00:48:48;;;;;;;1.47;0.40;;;13.60;99.90;;;;;;964128;147;27255;-85
2023/12/26 00:51:14;;;;;;;0.40;0.40;;;13.70;99.90;;;;;;968821;145;27654;-86
2023/12/26 00:53:41;;;;;;;0.30;0.30;;;13.70;99.90;;;;;;968921;145;27271;-84
2023/12/26 00:56:08;;;;;;;0.40;0.40;;;13.70;99.90;;;;;;968404;146;27332;-85
2023/12/26 00:58:35;;;;;;;0.40;0.40;;;13.60;99.80;;;;;;969295;146;27297;-86
2023/12/26 01:01:01;;;;;;;0.47;0.47;;;13.60;99.80;;;;;;967996;146;27444;-83
2023/12/26 01:03:27;;;;;;;0.50;0.50;;;13.60;99.80;;;;;;968945;148;27253;-85
2023/12/26 01:05:54;;;;;;;0.23;0.23;;;13.60;99.70;;;;;;968470;147;27297;-86
2023/12/26 01:08:21;;;;;;;0.75;0.57;;;13.60;99.80;;;;;;968486;145;27369;-86
2023/12/26 01:10:48;;;;;;;0.37;0.37;;;13.60;99.90;;;;;;968647;145;27261;-87
2023/12/26 01:13:14;;;;;;;0.55;0.42;;;13.60;99.80;;;;;;931387;152;27329;-87
2023/12/26 01:15:40;;;;;;;0.40;0.40;;;13.60;99.80;;;;;;953112;149;27337;-84
2023/12/26 01:18:07;;;;;;;0.40;0.40;;;13.60;99.80;;;;;;974894;146;27333;-83
2023/12/26 01:20:34;;;;;;;0.25;0.25;;;13.60;99.90;;;;;;975554;146;27272;-84
2023/12/26 01:23:00;;;;;;;0.30;0.30;;;13.60;99.80;;;;;;975349;147;27226;-85
2023/12/26 01:25:27;;;;;;;0.28;0.28;;;13.60;99.70;;;;;;974768;146;27268;-82
2023/12/26 01:27:53;;;;;;;0.35;0.35;;;13.60;99.80;;;;;;930875;151;27451;-85
2023/12/26 01:30:20;;;;;;;0.30;0.30;;;13.60;99.80;;;;;;931328;151;27310;-84
2023/12/26 01:32:47;;;;;;;0.30;0.30;;;13.50;99.80;;;;;;946257;148;27247;-85
2023/12/26 01:35:13;;;;;;;0.30;0.30;;;13.60;99.70;;;;;;946424;149;27342;-84
2023/12/26 01:37:40;;;;;;;0.42;0.42;;;13.60;99.70;;;;;;932036;151;27316;-83
2023/12/26 01:40:06;;;;;;;0.40;0.40;;;13.50;99.70;;;;;;930177;150;27478;-84
2023/12/26 01:42:33;;;;;;;0.40;0.30;;;13.60;99.70;;;;;;945858;148;27288;-83
2023/12/26 01:45:00;;;;;;;0.20;0.20;;;13.50;99.60;;;;;;947386;148;27321;-82
2023/12/26 01:47:26;;;;;;;1.00;0.50;;;13.50;99.60;;;;;;920766;152;27453;-82
2023/12/26 01:49:53;;;;;;;0.33;0.33;;;13.60;99.60;;;;;;949668;149;27380;-81
2023/12/26 01:52:19;;;;;;;0.40;0.30;;;13.60;99.70;;;;;;950059;148;27408;-81
2023/12/26 01:54:46;;;;;;;0.40;0.40;;;13.60;99.70;;;;;;931855;151;27354;-81
2023/12/26 01:57:12;;;;;;;0.37;0.37;;;13.60;99.60;;;;;;926752;152;27348;-81
2023/12/26 01:59:40;;;;;;;0.70;0.70;;;13.60;99.60;;;;;;932804;150;27363;-83
2023/12/26 02:02:06;;;;;;;0.55;0.55;;;13.60;99.60;;;;;;930134;153;27358;-81
2023/12/26 02:04:32;;;;;;;0.28;0.25;;;13.60;99.60;;;;;;963892;147;27329;-81
2023/12/26 02:06:59;;;;;;;0.40;0.40;;;13.60;99.50;;;;;;963754;147;27295;-81
2023/12/26 02:09:25;;;;;;;1.95;0.50;;;13.60;99.50;;;;;;963709;146;27403;-83
2023/12/26 02:11:52;;;;;;;0.30;0.30;;;13.60;99.40;;;;;;965234;147;27366;-81
2023/12/26 02:14:19;;;;;;;0.37;0.37;;;13.60;99.40;;;;;;966278;147;27282;-81
2023/12/26 02:16:45;;;;;;;0.40;0.40;;;13.60;99.40;;;;;;965444;147;27254;-82
2023/12/26 02:19:12;;;;;;;0.47;0.30;;;13.60;99.40;;;;;;964269;147;27411;-84
2023/12/26 02:21:38;;;;;;;0.20;0.20;;;13.60;99.20;;;;;;968542;146;27283;-83
2023/12/26 02:24:05;;;;;;;1.20;0.50;;;13.60;99.20;;;;;;967859;145;27334;-83
2023/12/26 02:26:31;;;;;;;0.40;0.40;;;13.60;99.30;;;;;;969225;146;27714;-82
2023/12/26 02:28:58;;;;;;;0.30;0.30;;;13.60;99.40;;;;;;968537;148;27262;-83
2023/12/26 02:31:25;;;;;;;0.80;0.80;;;13.60;99.60;;;;;;968963;146;27293;-83
2023/12/26 02:33:51;;;;;;;0.78;0.40;;;13.50;99.60;;;;;;968674;146;27329;-83
2023/12/26 02:36:18;;;;;;;0.57;0.57;;;13.50;99.40;;;;;;968226;145;27303;-83
2023/12/26 02:38:44;;;;;;;0.40;0.40;;;13.50;99.50;;;;;;968574;147;27289;-83
2023/12/26 02:41:11;;;;;;;1.00;0.30;;;13.40;99.60;;;;;;967807;145;27231;-82
2023/12/26 02:43:38;;;;;;;0.80;0.80;;;13.40;99.70;;;;;;969183;146;27334;-84
2023/12/26 02:46:04;;;;;;;0.50;0.50;;;13.40;99.70;;;;;;968298;145;27392;-82
2023/12/26 02:48:31;;;;;;;0.72;0.47;;;13.30;99.70;;;;;;967603;145;27293;-82
2023/12/26 02:50:57;;;;;;;1.02;0.70;;;13.30;99.90;;;;;;969238;146;27365;-83
2023/12/26 02:53:24;;;;;;;1.72;0.78;;;13.20;99.80;;;;;;968760;146;27290;-83
2023/12/26 02:55:53;;;;;;;0.88;0.88;;;13.20;99.90;;;;;;969242;146;27414;-83
2023/12/26 02:58:17;;;;;;;2.98;0.90;;;13.20;99.90;;;;;;968361;148;27299;-83
2023/12/26 03:00:44;;;;;;;2.00;1.00;;;13.20;99.90;;;;;;969361;147;27271;-83
2023/12/26 03:03:10;;;;;;;0.93;0.70;;;13.20;99.80;;;;;;968880;146;27285;-83
2023/12/26 03:05:37;;;;;;;0.95;0.72;;;13.20;99.80;;;;;;968505;145;27395;-83
2023/12/26 03:08:03;;;;;;;2.17;0.90;;;13.20;99.60;;;;;;969125;146;27402;-82
2023/12/26 03:10:30;;;;;;;1.50;0.78;;;13.20;99.60;;;;;;969521;146;27751;-81
2023/12/26 03:12:57;;;;;;;2.45;1.00;;;13.20;99.50;;;;;;969261;145;27308;-81
2023/12/26 03:15:23;;;;;;;1.95;0.88;;;13.20;99.20;;;;;;968488;145;27424;-82
2023/12/26 03:17:52;;;;;;;3.47;1.07;;;13.20;99.10;;;;;;968478;146;27423;-84
2023/12/26 03:20:16;;;;;;;1.47;0.93;;;13.20;98.90;;;;;;968087;148;27346;-84
2023/12/26 03:22:43;;;;;;;2.62;1.17;;;13.20;98.70;;;;;;969093;147;27278;-81
2023/12/26 03:25:10;;;;;;;2.30;1.00;;;13.30;98.50;;;;;;968578;146;27353;-81
2023/12/26 03:27:36;;;;;;;3.65;1.22;;;13.30;98.30;;;;;;969171;147;27328;-80
2023/12/26 03:30:03;;;;;;;1.30;0.90;;;13.30;98.20;;;;;;968638;148;27990;-81
2023/12/26 03:32:30;;;;;;;1.95;1.00;;;13.30;98.10;;;;;;968765;147;27299;-80
2023/12/26 03:34:56;;;;;;;3.17;1.50;;;13.30;98.00;;;;;;968903;147;27248;-82
2023/12/26 03:37:23;;;;;;;2.00;1.17;;;13.30;98.00;;;;;;969316;147;27326;-82
2023/12/26 03:39:49;;;;;;;1.72;1.17;;;13.30;97.80;;;;;;969025;147;27403;-80
2023/12/26 03:42:16;;;;;;;3.05;1.20;;;13.30;97.70;;;;;;968476;148;27253;-83
2023/12/26 03:44:43;;;;;;;1.30;1.15;;;13.40;97.50;;;;;;968680;147;27354;-83
2023/12/26 03:47:10;;;;;;;2.33;1.50;;;13.30;97.40;;;;;;968974;147;27274;-85
2023/12/26 03:49:35;;;;;;;4.62;1.55;;;13.40;97.40;;;;;;968236;147;27314;-83
2023/12/26 03:52:02;;;;;;;3.98;1.40;;;13.40;97.20;;;;;;968465;146;27283;-84
2023/12/26 03:54:29;;;;;;;1.62;1.45;;;13.40;97.20;;;;;;968759;145;27306;-84
2023/12/26 03:56:55;;;;;;;1.60;1.10;;;13.30;97.20;;;;;;968974;145;27309;-84
2023/12/26 03:59:22;;;;;;;2.37;1.20;;;13.40;97.30;;;;;;968289;147;27313;-83
2023/12/26 04:01:48;;;;;;;3.15;1.60;;;13.30;97.10;;;;;;968755;147;28936;-85
2023/12/26 04:04:15;;;;;;;2.67;1.20;;;13.40;96.90;;;;;;967853;147;27263;-86
2023/12/26 04:06:42;;;;;;;1.52;1.30;;;13.40;96.90;;;;;;969531;146;27336;-87
2023/12/26 04:09:09;;;;;;;3.22;1.20;;;13.40;96.80;;;;;;968937;146;27411;-87
2023/12/26 04:11:35;;;;;;;4.33;1.50;;;13.40;96.50;;;;;;968930;147;27408;-87
2023/12/26 04:14:01;;;;;;;2.55;1.67;;;13.30;96.60;;;;;;971663;146;27356;-85
2023/12/26 04:16:28;;;;;;;2.58;1.27;;;13.40;96.60;;;;;;969335;146;27311;-83
2023/12/26 04:18:55;;;;;;;4.13;1.77;;;13.40;96.60;;;;;;962328;146;27334;-83
2023/12/26 04:21:21;;;;;;;1.57;1.20;;;13.30;96.60;;;;;;964234;146;27322;-83
2023/12/26 04:23:48;;;;;;;4.42;1.98;;;13.30;96.60;;;;;;964593;146;27344;-83
2023/12/26 04:26:14;;;;;;;1.30;1.20;;;13.40;96.60;;;;;;963250;148;27344;-83
2023/12/26 04:28:41;;;;;;;2.65;1.47;;;13.30;96.60;;;;;;963021;148;27314;-84
2023/12/26 04:31:07;;;;;;;2.70;1.65;;;13.40;96.60;;;;;;961811;146;27318;-83
2023/12/26 04:33:34;;;;;;;2.42;1.55;;;13.30;96.60;;;;;;963096;147;27354;-84
2023/12/26 04:36:01;;;;;;;2.65;1.40;;;13.40;96.70;;;;;;962611;148;27278;-85
2023/12/26 04:38:27;;;;;;;3.23;1.37;;;13.30;96.60;;;;;;963030;147;27357;-86
2023/12/26 04:40:54;;;;;;;3.40;1.62;;;13.40;96.50;;;;;;964166;148;27251;-85
2023/12/26 04:43:20;;;;;;;4.60;1.80;;;13.30;96.40;;;;;;964251;146;27314;-87
2023/12/26 04:45:47;;;;;;;2.80;1.60;;;13.40;96.50;;;;;;963602;147;27324;-87
2023/12/26 04:48:14;;;;;;;2.47;1.50;;;13.40;96.50;;;;;;962268;146;27363;-87
2023/12/26 04:50:40;;;;;;;3.27;1.57;;;13.40;96.40;;;;;;964474;147;27262;-87
2023/12/26 04:53:09;;;;;;;4.33;1.52;;;13.30;96.20;;;;;;963191;147;27319;-86
2023/12/26 04:55:33;;;;;;;4.03;1.55;;;13.30;96.10;;;;;;961347;146;27325;-87
2023/12/26 04:58:00;;;;;;;8.18;2.00;;;13.30;96.00;;;;;;964522;146;27340;-87
2023/12/26 05:00:27;;;;;;;4.55;2.37;;;13.30;96.10;;;;;;963468;146;27384;-87
2023/12/26 05:02:53;;;;;;;3.08;1.70;;;13.30;96.30;;;;;;962763;146;27326;-86
2023/12/26 05:05:20;;;;;;;3.22;1.60;;;13.30;96.10;;;;;;962653;148;27317;-85
2023/12/26 05:07:46;;;;;;;4.45;1.72;;;13.30;96.10;;;;;;919038;151;27309;-85
2023/12/26 05:10:13;;;;;;;5.87;2.23;;;13.30;96.00;;;;;;963797;148;27227;-85
2023/12/26 05:12:39;;;;;;;3.52;1.35;;;13.30;96.10;;;;;;963738;147;27294;-84
2023/12/26 05:15:06;;;;;;;3.35;1.47;;;13.30;96.00;;;;;;965583;146;27372;-82
2023/12/26 05:17:33;;;;;;;4.35;1.90;;;13.30;96.10;;;;;;965394;146;27454;-83
2023/12/26 05:20:01;;;;;;;2.85;1.87;;;13.30;96.10;;;;;;970307;146;27270;-84
2023/12/26 05:22:26;;;;;;;4.40;1.65;;;13.30;96.10;;;;;;971112;146;27349;-83
2023/12/26 05:24:52;;;;;;;4.00;1.95;;;13.30;96.10;;;;;;963886;145;27382;-83
2023/12/26 05:27:19;;;;;;;3.25;2.00;;;13.30;96.00;;;;;;966338;145;27323;-84
2023/12/26 05:29:46;;;;;;;4.03;1.52;;;13.30;96.10;;;;;;967358;147;27259;-83
2023/12/26 05:32:12;;;;;;;3.60;1.80;;;13.30;96.20;;;;;;968007;145;27303;-83
2023/12/26 05:34:39;;;;;;;5.30;1.62;;;13.30;96.10;;;;;;968489;145;27836;-84
2023/12/26 05:37:05;;;;;;;5.75;1.85;;;13.30;96.00;;;;;;967618;147;27424;-84
2023/12/26 05:39:32;;;;;;;3.77;1.85;;;13.30;96.10;;;;;;967696;148;27350;-83
2023/12/26 05:41:59;;;;;;;5.55;1.80;;;13.30;96.10;;;;;;968355;146;27245;-83
2023/12/26 05:44:25;;;;;;;3.47;1.85;;;13.30;96.10;;;;;;969206;145;27283;-83
2023/12/26 05:46:53;;;;;;;3.42;1.60;;;13.30;96.20;;;;;;968451;146;27331;-83
2023/12/26 05:49:19;;;;;;;3.67;1.82;;;13.30;96.20;;;;;;968625;145;27335;-83
2023/12/26 05:51:45;;;;;;;3.60;1.55;;;13.30;96.20;;;;;;967646;148;27348;-84
2023/12/26 05:54:11;;;;;;;3.37;1.27;;;13.20;96.20;;;;;;968471;147;27313;-82
2023/12/26 05:56:38;;;;;;;4.67;1.50;;;13.20;96.30;;;;;;968651;145;27314;-83
2023/12/26 05:59:05;;;;;;;6.08;1.52;;;13.20;96.50;;;;;;938016;150;27481;-84
2023/12/26 06:01:31;;;;;;;3.40;1.52;;;13.20;96.50;;;;;;935534;151;27265;-84
2023/12/26 06:03:58;;;;;;;2.25;1.40;;;13.20;96.40;;;;;;967584;145;27376;-85
2023/12/26 06:06:25;;;;;;;3.35;1.65;;;13.20;96.40;;;;;;967969;146;27262;-85
2023/12/26 06:08:51;;;;;;;3.13;1.37;;;13.30;96.50;;;;;;968548;145;27385;-84
2023/12/26 06:11:18;;;;;;;1.70;1.25;;;13.30;96.40;;;;;;968968;145;27413;-83
2023/12/26 06:13:44;;;;;;;2.58;1.55;;;13.30;96.40;;;;;;949912;148;27368;-82
2023/12/26 06:16:11;;;;;;;3.83;1.55;;;13.30;96.40;;;;;;948192;149;27301;-85
2023/12/26 06:18:37;;;;;;;2.87;1.77;;;13.30;96.40;;;;;;931800;151;27435;-83
2023/12/26 06:21:04;;;;;;;2.15;1.50;;;13.30;96.40;;;;;;927242;150;27470;-82
2023/12/26 06:23:31;;;;;;;3.05;1.40;;;13.30;96.50;;;;;;931323;151;27440;-83
2023/12/26 06:25:57;;;;;;;3.83;1.57;;;13.30;96.50;;;;;;933591;151;27409;-85
2023/12/26 06:28:24;;;;;;;3.77;1.80;;;13.30;96.50;;;;;;975235;146;27257;-86
2023/12/26 06:30:50;;;;;;;2.90;1.57;;;13.30;96.60;;;;;;940786;149;27362;-87
2023/12/26 06:33:19;;;;;;;5.67;1.60;;;13.30;96.50;;;;;;966423;146;27272;-86
2023/12/26 06:35:43;;;;;;;2.27;1.40;;;13.30;96.50;;;;;;967671;146;27279;-86
2023/12/26 06:38:13;;;;;;;2.67;1.92;;;13.30;96.50;;;;;;967453;146;27621;-85
2023/12/26 06:40:37;;;;;;;3.27;2.12;;;13.30;96.50;;;;;;967121;146;27344;-86
2023/12/26 06:43:03;;;;;;;4.50;1.80;;;13.30;96.50;;;;;;968475;146;27893;-86
2023/12/26 06:45:30;;;;;;;3.65;1.95;;;13.30;96.50;;;;;;967923;146;27251;-86
2023/12/26 06:47:56;;;;;;;5.03;1.52;;;13.30;96.50;;;;;;968215;146;27425;-85
2023/12/26 06:50:23;;;;;;;4.08;2.05;;;13.30;96.50;;;;;;966650;146;27362;-84
2023/12/26 06:52:50;;;;;;;3.12;1.22;;;13.30;96.60;;;;;;966977;145;27322;-86
2023/12/26 06:55:16;;;;;;;2.98;1.70;;;13.30;96.60;;;;;;925982;151;27402;-86
2023/12/26 06:57:43;;;;;;;4.28;2.37;;;13.30;96.60;;;;;;965322;146;27982;-86
2023/12/26 07:00:09;;;;;;;2.77;1.47;;;13.30;96.60;;;;;;966973;146;27307;-85
2023/12/26 07:02:36;;;;;;;4.37;1.80;;;13.30;96.60;;;;;;966247;146;27298;-84
2023/12/26 07:05:03;;;;;;;3.37;1.35;;;13.30;96.60;;;;;;966090;146;27328;-83
2023/12/26 07:07:29;;;;;;;3.10;1.63;;;13.30;96.60;;;;;;964999;146;27234;-85
2023/12/26 07:09:56;;;;;;;2.92;1.70;;;13.30;96.60;;;;;;964823;146;27259;-85
2023/12/26 07:12:22;;;;;;;2.55;1.30;;;13.30;96.60;;;;;;965978;146;27317;-84
2023/12/26 07:14:49;;;;;;;2.98;1.70;;;13.30;96.60;;;;;;964341;146;27387;-86
2023/12/26 07:17:16;;;;;;;3.15;1.47;;;13.30;96.60;;;;;;966071;146;27315;-87
2023/12/26 07:19:42;;;;;;;4.75;1.62;;;13.30;96.50;;;;;;966889;146;27266;-85
2023/12/26 07:22:09;;;;;;;2.42;1.55;;;13.30;96.50;;;;;;964817;146;27367;-85
2023/12/26 07:24:35;;;;;;;3.12;1.40;;;13.30;96.60;;;;;;966199;146;27423;-87
2023/12/26 07:27:02;;;;;;;3.72;1.70;;;13.30;96.90;;;;;;966828;146;27313;-87
2023/12/26 07:29:28;;;;;;;3.27;1.57;;;13.30;96.50;;;;;;966338;146;27316;-86
2023/12/26 07:31:55;;;;;;;3.67;1.90;;;13.30;96.60;;;;;;964012;147;27423;-87
2023/12/26 07:34:22;;;;;;;2.00;1.27;;;13.30;96.60;;;;;;965809;147;27371;-85
2023/12/26 07:36:48;;;;;;;2.45;1.52;;;13.30;96.50;;;;;;965515;147;27322;-87
2023/12/26 07:39:15;;;;;;;3.77;1.67;;;13.30;96.60;;;;;;965723;147;27364;-87
2023/12/26 07:41:41;;;;;;;3.58;1.80;;;13.30;96.40;;;;;;965170;146;27278;-87
2023/12/26 07:44:08;;;;;;;3.72;1.60;;;13.40;96.50;;;;;;965513;146;27354;-87
2023/12/26 07:46:35;;;;;;;3.83;1.72;;;13.30;96.40;;;;;;965881;146;27771;-83
2023/12/26 07:49:01;;;;;;;2.45;1.45;;;13.30;96.40;;;;;;964571;145;27754;-86
2023/12/26 07:51:28;;;;;;;3.45;1.57;;;13.30;96.40;;;;;;929562;150;27339;-87
2023/12/26 07:53:55;;;;;;;3.40;1.40;;;13.30;96.50;;;;;;932759;152;27306;-85
2023/12/26 07:56:21;;;;;;;3.42;1.27;;;13.40;96.60;;;;;;933158;149;27412;-80
2023/12/26 07:58:48;;;;;;;3.00;1.62;;;13.40;96.60;;;;;;967513;145;27314;-85
2023/12/26 08:01:14;;;;;;;2.85;1.50;;;13.30;96.30;;;;;;967677;146;27215;-86
2023/12/26 08:03:41;;;;;;;2.90;1.45;;;13.40;96.40;;;;;;968004;146;27828;-86
2023/12/26 08:06:07;;;;;;;3.00;1.47;;;13.30;96.10;;;;;;966171;146;27339;-85
2023/12/26 08:08:34;;;;;;;3.87;1.53;;;13.30;96.30;;;;;;966297;146;27366;-87
2023/12/26 08:11:00;;;;;;;2.75;1.47;;;13.30;96.40;;;;;;967245;146;27390;-87
2023/12/26 08:13:27;;;;;;;1.95;1.30;;;13.30;96.60;;;;;;966570;146;27402;-85
2023/12/26 08:15:54;;;;;;;1.40;1.20;;;13.40;96.50;;;;;;966229;146;27419;-86
2023/12/26 08:18:20;;;;;;;2.10;1.32;;;13.30;96.60;;;;;;967077;146;27351;-83
2023/12/26 08:20:47;;;;;;;3.33;1.47;;;13.40;96.60;;;;;;966856;146;27477;-86
2023/12/26 08:23:13;;;;;;;3.02;1.62;;;13.40;96.60;;;;;;966694;146;27361;-87
2023/12/26 08:25:40;;;;;;;2.80;1.70;;;13.40;96.60;;;;;;966496;146;27256;-86
2023/12/26 08:28:07;;;;;;;2.05;1.12;;;13.40;96.50;;;;;;967428;146;27215;-84
2023/12/26 08:30:33;;;;;;;2.02;1.40;;;13.40;96.50;;;;;;926555;151;27356;-87
2023/12/26 08:33:00;;;;;;;2.42;1.30;;;13.50;96.60;;;;;;963687;146;27318;-87
2023/12/26 08:35:26;;;;;;;3.15;1.35;;;13.50;96.60;;;;;;969967;146;27239;-86
2023/12/26 08:37:53;;;;;;;4.30;1.37;;;13.40;96.50;;;;;;969553;146;27230;-86
2023/12/26 08:40:22;;;;;;;3.55;1.55;;;13.50;96.30;;;;;;966058;146;27375;-83
2023/12/26 08:42:46;;;;;;;1.82;1.05;;;13.50;96.40;;;;;;965733;146;27327;-86
2023/12/26 08:45:13;;;;;;;4.58;1.37;;;13.40;96.20;;;;;;966298;146;27293;-86
2023/12/26 08:47:39;;;;;;;3.50;1.72;;;13.40;96.30;;;;;;965835;146;27822;-85
2023/12/26 08:50:06;;;;;;;1.85;1.17;;;13.50;96.40;;;;;;966511;146;27339;-83
2023/12/26 08:52:33;;;;;;;1.40;1.25;;;13.50;96.40;;;;;;967733;146;27325;-85
2023/12/26 08:54:59;;;;;;;2.05;1.20;;;13.50;96.30;;;;;;966963;146;27327;-86
2023/12/26 08:57:26;;;;;;;2.37;1.95;;;13.50;96.40;;;;;;965770;146;27275;-86
2023/12/26 08:59:52;;;;;;;3.47;1.70;;;13.50;96.30;;;;;;966043;146;27396;-85
2023/12/26 09:02:19;;;;;;;2.65;1.30;;;13.50;96.30;;;;;;964730;147;27342;-85
2023/12/26 09:04:46;;;;;;;3.25;1.17;;;13.50;96.30;;;;;;965659;147;27426;-86
2023/12/26 09:07:13;;;;;;;2.83;1.32;;;13.50;96.40;;;;;;966296;147;27277;-85
2023/12/26 09:09:39;;;;;;;3.67;1.30;;;13.50;96.50;;;;;;965747;146;27787;-85
2023/12/26 09:12:05;;;;;;;2.95;1.17;;;13.50;96.40;;;;;;924409;151;27326;-83
2023/12/26 09:14:32;;;;;;;1.90;1.27;;;13.50;96.40;;;;;;949207;148;27332;-87
2023/12/26 09:16:58;;;;;;;4.60;1.30;;;13.50;96.40;;;;;;951776;148;27313;-86
2023/12/26 09:19:25;;;;;;;1.77;1.42;;;13.50;96.50;;;;;;922493;152;27292;-86
2023/12/26 09:21:52;;;;;;;2.85;1.12;;;13.50;96.50;;;;;;952940;149;27369;-84
2023/12/26 09:24:18;;;;;;;3.60;1.47;;;13.60;96.60;;;;;;974870;146;27750;-86
2023/12/26 09:26:45;;;;;;;3.02;1.40;;;13.60;96.70;;;;;;974466;146;27262;-85
2023/12/26 09:29:11;;;;;;;3.12;1.20;;;13.60;96.80;;;;;;963283;146;27238;-85
2023/12/26 09:31:38;;;;;;;1.50;1.10;;;13.60;96.80;;;;;;971884;146;27294;-85
2023/12/26 09:34:05;;;;;;;1.62;1.10;;;13.60;96.70;;;;;;971739;146;27418;-82
2023/12/26 09:36:31;;;;;;;1.92;1.35;;;13.60;96.60;;;;;;971230;146;27329;-85
2023/12/26 09:38:58;;;;;;;2.30;1.50;;;13.60;96.60;;;;;;972183;146;27306;-85
2023/12/26 09:41:27;;;;;;;1.77;1.07;;;13.60;96.60;;;;;;969261;145;27262;-87
2023/12/26 09:43:53;;;;;;;4.20;1.20;;;13.60;96.60;;;;;;968607;147;27352;-83
2023/12/26 09:46:20;;;;;;;3.10;1.50;;;13.60;96.70;;;;;;968581;146;27317;-86
2023/12/26 09:48:47;;;;;;;2.25;1.32;;;13.60;96.90;;;;;;968054;147;27381;-86
2023/12/26 09:51:13;;;;;;;2.00;1.32;;;13.60;97.00;;;;;;967953;147;27302;-86
2023/12/26 09:53:40;;;;;;;1.77;1.20;;;13.60;97.00;;;;;;966283;145;27262;-86
2023/12/26 09:56:08;;;;;;;1.25;1.12;;;13.60;97.00;;;;;;968168;147;27420;-81
2023/12/26 09:58:33;;;;;;;1.55;1.02;;;13.60;97.10;;;;;;966873;146;27294;-81
2023/12/26 10:00:59;;;;;;;1.60;1.00;;;13.60;97.10;;;;;;968678;147;27247;-81
2023/12/26 10:03:26;;;;;;;2.20;1.20;;;13.60;97.20;;;;;;968283;147;27309;-80
2023/12/26 10:05:57;;;;;;;1.55;1.00;;;13.70;97.20;;;;;;967619;146;27337;-80
2023/12/26 10:08:19;;;;;;;1.20;1.10;;;13.70;97.10;;;;;;968648;146;27349;-81
2023/12/26 10:10:46;;;;;;;2.05;0.80;;;13.70;97.00;;;;;;969079;146;27243;-81
2023/12/26 10:13:12;;;;;;;0.90;0.90;;;13.70;97.10;;;;;;968141;146;27272;-81
2023/12/26 10:15:39;;;;;;;1.37;1.22;;;13.80;97.10;;;;;;968152;146;27324;-81
2023/12/26 10:18:06;;;;;;;1.90;1.10;;;13.80;97.20;;;;;;971384;147;27485;-82
2023/12/26 10:20:32;;;;;;;0.98;0.72;;;13.80;97.30;;;;;;974057;145;27376;-83
2023/12/26 10:22:59;;;;;;;1.37;0.80;;;13.80;97.10;;;;;;974631;146;27299;-82
2023/12/26 10:25:25;;;;;;;1.40;0.80;;;13.80;97.10;;;;;;974215;146;27329;-82
2023/12/26 10:27:55;;;;;;;1.02;0.90;;;13.90;97.10;;;;;;975023;146;27412;-84
2023/12/26 10:30:21;;;;;;;1.42;0.82;;;13.90;97.30;;;;;;974047;145;27454;-82
2023/12/26 10:32:48;;;;;;;2.60;0.90;;;13.80;97.40;;;;;;974447;146;27312;-82
2023/12/26 10:35:14;;;;;;;1.00;0.90;;;13.80;97.70;;;;;;972349;146;27297;-81
2023/12/26 10:37:41;;;;;;;1.67;1.10;;;13.80;97.90;;;;;;974033;144;27400;-82
2023/12/26 10:40:08;;;;;;;1.75;1.17;;;13.80;98.20;;;;;;974383;146;28405;-81
2023/12/26 10:42:37;;;;;;;1.20;1.10;;;13.70;98.60;;;;;;974483;146;27228;-84
2023/12/26 10:45:06;;;;;;;1.95;1.30;;;13.60;98.90;;;;;;973964;146;27277;-82
2023/12/26 10:47:30;;;;;;;0.98;0.98;;;13.60;99.40;;;;;;971551;147;27719;-82
2023/12/26 10:49:59;;;;;;;1.05;1.05;;;13.50;99.70;;;;;;963648;147;27355;-81
2023/12/26 10:52:23;;;;;;;2.98;1.20;;;13.50;99.90;;;;;;965447;147;27339;-82
2023/12/26 10:54:50;;;;;;;1.20;1.10;;;13.50;99.90;;;;;;963269;146;27367;-83
2023/12/26 10:57:16;;;;;;;0.90;0.80;;;13.50;99.90;;;;;;962799;147;27424;-81
2023/12/26 13:52:21;;;;;;;1.27;1.12;;;13.60;97.40;;;;;;967184;147;27417;-80
2023/12/26 13:55:25;;;;;;;1.15;1.05;;;13.50;97.90;;;;;;968870;148;27328;-81
2023/12/26 13:58:28;;;;;;;1.17;1.07;;;13.50;98.50;;;;;;968663;147;27330;-83
2023/12/26 14:01:32;;;;;;;1.35;1.20;;;13.50;98.90;;;;;;968792;145;27279;-82
2023/12/26 14:04:36;;;;;;;1.00;1.00;;;13.50;99.00;;;;;;967910;145;27305;-81
2023/12/26 14:07:44;;;;;;;1.10;1.10;;;13.50;99.10;;;;;;967955;146;27291;-82
2023/12/26 14:10:43;;;;;;;0.90;0.90;;;13.50;99.40;;;;;;968272;146;27331;-81
2023/12/26 14:13:47;;;;;;;0.93;0.93;;;13.40;99.60;;;;;;968822;147;27313;-80
2023/12/26 14:16:51;;;;;;;0.60;0.60;;;13.50;99.90;;;;;;969021;148;27322;-81
2023/12/26 14:19:54;;;;;;;0.80;0.80;;;13.50;99.90;;;;;;968286;145;27454;-81
2023/12/26 14:22:58;;;;;;;0.72;0.72;;;13.60;99.90;;;;;;968364;147;27334;-80
2023/12/26 14:26:02;;;;;;;0.90;0.90;;;13.60;99.60;;;;;;967818;148;27267;-83
2023/12/26 14:29:06;;;;;;;2.35;0.88;;;13.60;99.30;;;;;;968596;145;27394;-83
2023/12/26 14:32:10;;;;;;;1.40;1.20;;;13.60;99.00;;;;;;967889;148;27381;-80
2023/12/26 14:35:13;;;;;;;1.12;1.02;;;13.60;98.60;;;;;;968117;148;27231;-82
2023/12/26 14:38:17;;;;;;;1.12;1.02;;;13.60;98.30;;;;;;968469;146;27858;-81
2023/12/26 14:41:20;;;;;;;1.00;1.00;;;13.60;98.10;;;;;;968459;148;27334;-81
2023/12/26 14:44:24;;;;;;;1.10;1.10;;;13.50;98.00;;;;;;968476;147;27282;-82
2023/12/26 14:47:28;;;;;;;0.95;0.95;;;13.50;97.70;;;;;;968167;147;27681;-82
2023/12/26 14:50:32;;;;;;;2.22;0.88;;;13.50;97.50;;;;;;968851;146;27247;-82
2023/12/26 14:53:35;;;;;;;0.70;0.70;;;13.40;97.40;;;;;;968533;148;27237;-83
2023/12/26 14:56:39;;;;;;;1.10;0.80;;;13.40;97.20;;;;;;968449;147;27253;-82
2023/12/26 14:59:43;;;;;;;1.00;0.80;;;13.30;97.20;;;;;;967984;147;27929;-82
2023/12/26 15:02:10;;;;;;;0.70;0.70;;;13.20;97.40;;;;;;968818;146;27333;-82
2023/12/26 15:04:36;;;;;;;1.85;0.68;;;13.20;97.70;;;;;;967437;146;28384;-82
2023/12/26 15:07:05;;;;;;;1.50;0.93;;;13.20;98.00;;;;;;968284;147;27332;-82
2023/12/26 15:09:29;;;;;;;2.43;1.23;;;13.10;98.20;;;;;;967123;147;27419;-82
2023/12/26 15:11:56;;;;;;;2.85;1.47;;;13.10;98.30;;;;;;968802;148;27273;-81
2023/12/26 15:14:22;;;;;;;1.60;1.35;;;13.10;98.30;;;;;;966982;148;27476;-81
2023/12/26 15:16:49;;;;;;;1.10;1.10;;;13.10;98.20;;;;;;967652;146;27288;-81
2023/12/26 15:19:16;;;;;;;1.92;1.35;;;13.10;98.00;;;;;;967500;145;27773;-81
2023/12/26 15:21:42;;;;;;;1.10;1.10;;;13.00;97.80;;;;;;968858;147;27576;-82
2023/12/26 15:24:12;;;;;;;1.77;1.27;;;13.00;97.70;;;;;;968417;145;27361;-81
2023/12/26 15:26:38;;;;;;;1.53;1.40;;;13.00;97.60;;;;;;967621;145;27267;-82
2023/12/26 15:29:05;;;;;;;1.80;1.30;;;12.90;97.50;;;;;;967885;148;27281;-81
2023/12/26 15:31:34;;;;;;;1.63;1.13;;;12.80;97.40;;;;;;968676;148;27351;-82
2023/12/26 15:33:58;;;;;;;1.45;1.05;;;12.80;97.50;;;;;;967849;146;27429;-82
2023/12/26 15:36:25;;;;;;;0.77;0.77;;;12.70;97.70;;;;;;968868;146;27325;-81
2023/12/26 15:38:51;;;;;;;0.78;0.70;;;12.70;97.90;;;;;;968232;148;27440;-82
2023/12/26 15:41:18;;;;;;;1.47;1.00;;;12.60;98.00;;;;;;967772;146;27271;-81
2023/12/26 15:43:44;;;;;;;1.37;0.80;;;12.60;98.10;;;;;;968149;147;27309;-82
2023/12/26 15:46:14;;;;;;;1.10;0.90;;;12.60;98.20;;;;;;968469;146;27325;-86
2023/12/26 15:48:40;;;;;;;1.93;0.90;;;12.60;98.30;;;;;;966566;148;27258;-86
2023/12/26 15:51:07;;;;;;;1.82;1.10;;;12.60;98.30;;;;;;968109;147;27221;-85